KDVN/DVN METAR and TAF weather

Enter ICAO airport designator
Station Type Date Time Source
KDVN METAR 2020/07/04 02:52 UTC NOAA

KDVN 040252Z AUTO 01004KT 10SM CLR 23/20 A3006 RMK AO2 SLP169 T02330200 53008


Station Type Date Time Source
KDVN Decoded METAR 2020/07/04 02:52 UTC NOAA

DAVENPORT MUNICIPAL AIRPORT, IA, United States (KDVN) 41-37N 90-35W 228M
Jul 03, 2020 - 10:52 PM EDT / 2020.07.04 0252 UTC
Wind: from the N (010 degrees) at 5 MPH (4 KT):0
Visibility: 10 mile(s):0
Sky conditions: clear
Temperature: 73.9 F (23.3 C)
Dew Point: 68.0 F (20.0 C)
Relative Humidity: 81%
Pressure (altimeter): 30.06 in. Hg (1017 hPa)
Pressure tendency: 0.02 inches (0.8 hPa) higher than three hours ago
ob: KDVN 040252Z AUTO 01004KT 10SM CLR 23/20 A3006 RMK AO2 SLP169 T02330200 53008
cycle: 3

Station Type Date Time Source
KDVN TAF UTC NOAA

Error!

Example: see airport list